Terminal Aerodrome Forecast
Issued by NWS

Home | Current Version | Previous Version | Graphics & Text | Print | Product List | Glossary On
Versions: 1 2 3 4 5 6 7 8 9 10 11 12 13 14 15 16 17 18 19 20
000
FTUS43 KICT 031135
TAFCNU
TAF
KCNU 031135Z 0312/0412 VRB05KT 1/2SM FG BKN003 OVC016
      TEMPO 0312/0316 3SM BR SCT006 BKN016
     FM031600 03008KT P6SM BKN020
     FM040100 07008KT P6SM SCT010=

USA.gov is the U.S. government's official web portal to all federal, state and local government web resources and services.